Aérodrome :
LOGIN :

S'inscrire | Disclaimer

   EN    FR    IT 

 










Légende :    VFR   VFR Marginal   IFR   IFR Intensif   IFR Très Intensif
Visi : 
Plafond : 
>= 8 km
>= 3000ft
5 à 8 km
1000 à 3000 ft
1500m à 5 km
500 à 1000 ft
800 à 1500m
200 à 500 ft
< 800m
< 200 ft
Symboles :   Orages  Brouillard  Fortes neiges  Fortes précipitations  Vent > 20 kt
SIGMETs :   Divers  Orages  Givrage  Turbulence  Onde Orograph.  Cendres Volcan.







- Altitude de l'aérodrome : 13 ft
- Code IATA : CEQ
- Voir les cartes d'approche


LFMD - Cannes Mandelieu

DERNIER METAR :
  • 260100Z AUTO VRB02KT 9999 -RA FEW007 SCT012 BKN034 03/01 Q1008

METARs EXPIRÉS :
  • 260030Z AUTO 36004KT 320V040 9999 -RA BKN033 BKN043 BKN052 04/02 Q1007
  • 260000Z AUTO VRB03KT 9999 -RA BKN028 BKN034 OVC054 04/02 Q1007
  • 252330Z AUTO 34003KT 310V030 9999 -RA OVC024 04/02 Q1008
  • 252300Z AUTO VRB02KT 9999 -RA BKN014 OVC021 04/02 Q1008
  • 252230Z AUTO VRB01KT 9999 -RA BKN012 OVC020 04/02 Q1007

TAF TAF LFMD
Valide du 25 à 15h jusqu'au 26 à 15h UTC


251400Z 2515/2615 VRB03KT 9999 BKN026 BKN033
BECMG 2515/2517 10014KT
TEMPO 2515/2614 3000 RA BKN010 FEW020TCU
BECMG 2522/2524 VRB10G20KT
PROB40
TEMPO 2605/2610 1400 RASN BKN006
BECMG 2613/2615 NSW
ATIS : +33 4 93 48 73 23
Pas de NOTAMs connus pour ce terrain.
1 SIGMET publié pour la FIR Marseille (LFMM) :
 
Turbulence forte
LFMM SIGMET 5 VALID 260000/260400 LFPW
LFMM MARSEILLE FIR/UIR SEV TURB FCST WI N4500 E00415 - N4500 E00515 - N4230 E00530 - N4230 E00415 - N4500 E00415 SFC/FL050 STNR NC=



MET'MAP, la Météo Aéronautique d'un coup d'oeil ! - Copyright ORBIFLY Décembre 2007 - Disclaimer

ORBIFLY MET'MAP TEAM :

Programmation & Développement : Alexandra Zaïnal
Conception & Développement : Baudouin d'Aumeries
Co-Programmation & Développement : Marc-Olivier Méhu
Soutien technique & logistique : Manuel Goepfert

Contact : metmap@orbifly.com




SOURCES & CREDITS :

   NOAA